Time;durP1;ratioP1;P1;durP2;ratioP2;P2;SDS_P1;SDS_P2;PMS_P1;PMS_P2;Temp;Humidity;BMP_temperature;BMP_pressure;BME280_temperature;BME280_humidity;BME280_pressure;Samples;Min_cycle;Max_cycle;Signal;HPM_P1;HPM_P2
2021/12/08 00:00:47;;;;;;;6.05;2.08;;;;;;;;;;5020106;28;20124;-77
2021/12/08 00:03:14;;;;;;;6.03;2.17;;;;;;;;;;5001782;28;20522;-77
2021/12/08 00:05:40;;;;;;;5.82;1.70;;;;;;;;;;5000725;28;20042;-79
2021/12/08 00:08:06;;;;;;;5.00;1.73;;;;;;;;;;5003384;28;20488;-80
2021/12/08 00:13:07;;;;;;;7.50;2.40;;;;;;;;;;5020070;28;20053;-80
2021/12/08 00:15:34;;;;;;;11.93;2.33;;;;;;;;;;5019815;28;20042;-80
2021/12/08 00:18:01;;;;;;;5.25;1.95;;;;;;;;;;5019404;28;20041;-79
2021/12/08 00:20:29;;;;;;;14.68;2.08;;;;;;;;;;5003145;28;20042;-80
2021/12/08 00:22:55;;;;;;;6.30;2.38;;;;;;;;;;5006006;28;20045;-80
2021/12/08 00:25:22;;;;;;;6.13;1.85;;;;;;;;;;5022426;28;20045;-81
2021/12/08 00:27:48;;;;;;;4.57;1.70;;;;;;;;;;5020274;28;20133;-80
2021/12/08 00:30:15;;;;;;;8.77;1.63;;;;;;;;;;5018553;28;20045;-78
2021/12/08 00:32:41;;;;;;;5.30;2.00;;;;;;;;;;5001951;28;20038;-78
2021/12/08 00:35:07;;;;;;;5.38;1.90;;;;;;;;;;5017884;28;20406;-78
2021/12/08 00:37:33;;;;;;;3.80;1.65;;;;;;;;;;5018860;28;20041;-79
2021/12/08 00:39:59;;;;;;;4.97;1.58;;;;;;;;;;5002539;28;20048;-80
2021/12/08 00:42:25;;;;;;;5.82;1.60;;;;;;;;;;5018355;28;20038;-80
2021/12/08 00:44:51;;;;;;;3.75;1.25;;;;;;;;;;5018978;28;20096;-80
2021/12/08 00:47:17;;;;;;;5.70;1.80;;;;;;;;;;5018355;28;20053;-80
2021/12/08 00:49:45;;;;;;;3.65;1.70;;;;;;;;;;5018835;28;20091;-80
2021/12/08 00:52:13;;;;;;;4.43;1.98;;;;;;;;;;5005400;28;20042;-79
2021/12/08 00:54:39;;;;;;;6.13;1.77;;;;;;;;;;5018989;28;20042;-79
2021/12/08 00:57:05;;;;;;;6.57;2.05;;;;;;;;;;5018429;28;20045;-79
2021/12/08 00:59:31;;;;;;;7.70;2.03;;;;;;;;;;5003153;28;20061;-81
2021/12/08 01:02:02;;;;;;;12.30;2.10;;;;;;;;;;5004397;28;20056;-79
2021/12/08 01:04:29;;;;;;;12.48;2.13;;;;;;;;;;5021003;28;20038;-81
2021/12/08 01:06:55;;;;;;;5.20;2.13;;;;;;;;;;5005928;28;20092;-79
2021/12/08 01:09:21;;;;;;;4.45;2.08;;;;;;;;;;5006431;28;20042;-80
2021/12/08 01:11:47;;;;;;;9.18;2.45;;;;;;;;;;5001674;28;20045;-79
2021/12/08 01:14:14;;;;;;;4.90;2.22;;;;;;;;;;5001510;28;20053;-79
2021/12/08 01:16:40;;;;;;;10.13;2.45;;;;;;;;;;5001804;28;20100;-78
2021/12/08 01:19:06;;;;;;;4.68;2.30;;;;;;;;;;5000878;28;20132;-80
2021/12/08 01:21:32;;;;;;;3.65;2.10;;;;;;;;;;5002017;28;20120;-81
2021/12/08 01:23:59;;;;;;;6.53;2.30;;;;;;;;;;5024386;28;20077;-81
2021/12/08 01:26:26;;;;;;;4.70;2.15;;;;;;;;;;5011189;28;20074;-80
2021/12/08 01:28:55;;;;;;;7.13;2.40;;;;;;;;;;5011680;28;20061;-80
2021/12/08 01:31:21;;;;;;;6.05;2.33;;;;;;;;;;5012626;28;20046;-80
2021/12/08 01:33:48;;;;;;;6.00;2.30;;;;;;;;;;5027485;28;20063;-82
2021/12/08 01:36:14;;;;;;;5.18;2.55;;;;;;;;;;5026627;28;20074;-78
2021/12/08 01:38:40;;;;;;;7.43;2.42;;;;;;;;;;5027190;28;20034;-79
2021/12/08 01:41:06;;;;;;;5.70;2.40;;;;;;;;;;5027378;28;20057;-79
2021/12/08 01:43:42;;;;;;;5.38;2.38;;;;;;;;;;5024751;28;20046;-77
2021/12/08 01:46:09;;;;;;;9.55;3.08;;;;;;;;;;5009775;28;20465;-80
2021/12/08 01:48:35;;;;;;;6.80;2.58;;;;;;;;;;5008248;28;20452;-79
2021/12/08 01:51:05;;;;;;;8.55;2.50;;;;;;;;;;5006347;28;20544;-80
2021/12/08 01:53:32;;;;;;;5.38;2.50;;;;;;;;;;5023793;28;20370;-78
2021/12/08 01:55:58;;;;;;;4.53;1.98;;;;;;;;;;5028503;28;20034;-78
2021/12/08 01:58:24;;;;;;;5.20;2.50;;;;;;;;;;5030454;28;20033;-81
2021/12/08 02:00:54;;;;;;;3.33;2.17;;;;;;;;;;5026380;28;20429;-80
2021/12/08 02:03:21;;;;;;;3.65;2.33;;;;;;;;;;5028184;28;20413;-81
2021/12/08 02:05:48;;;;;;;3.33;2.00;;;;;;;;;;5028158;28;20057;-81
2021/12/08 02:08:14;;;;;;;5.40;2.28;;;;;;;;;;5025760;28;20034;-78
2021/12/08 02:10:41;;;;;;;4.35;2.60;;;;;;;;;;5023628;28;20042;-79
2021/12/08 02:13:07;;;;;;;7.45;2.50;;;;;;;;;;5008240;28;20052;-79
2021/12/08 02:15:35;;;;;;;5.82;2.42;;;;;;;;;;5012020;28;20038;-79
2021/12/08 02:18:01;;;;;;;5.50;2.60;;;;;;;;;;5023756;28;20057;-79
2021/12/08 02:20:27;;;;;;;5.03;2.22;;;;;;;;;;5011146;28;20465;-79
2021/12/08 02:22:54;;;;;;;4.15;2.30;;;;;;;;;;5027744;28;20442;-80
2021/12/08 02:25:20;;;;;;;6.45;2.50;;;;;;;;;;5029145;28;20044;-80
2021/12/08 02:27:47;;;;;;;5.40;2.63;;;;;;;;;;5029903;28;20045;-80
2021/12/08 02:30:20;;;;;;;6.85;2.55;;;;;;;;;;5028821;28;20343;-79
2021/12/08 02:48:57;;;;;;;5.32;2.25;;;;;;;;;;5023757;28;20045;-79
2021/12/08 02:51:23;;;;;;;6.55;2.50;;;;;;;;;;5008298;28;20073;-80
2021/12/08 02:53:49;;;;;;;4.38;2.38;;;;;;;;;;5022270;28;20358;-81
2021/12/08 02:56:16;;;;;;;4.15;2.38;;;;;;;;;;5022334;28;20120;-81
2021/12/08 02:58:42;;;;;;;4.07;2.20;;;;;;;;;;5021840;28;20450;-80
2021/12/08 03:01:08;;;;;;;5.15;2.20;;;;;;;;;;5007766;28;20033;-80
2021/12/08 03:03:35;;;;;;;5.65;2.22;;;;;;;;;;5026543;28;20044;-80
2021/12/08 03:06:01;;;;;;;4.68;2.20;;;;;;;;;;5005191;28;20121;-80
2021/12/08 03:08:27;;;;;;;5.20;2.60;;;;;;;;;;5022417;28;20045;-80
2021/12/08 03:10:53;;;;;;;3.90;2.03;;;;;;;;;;5025408;28;20073;-81
2021/12/08 03:13:19;;;;;;;7.53;2.45;;;;;;;;;;5023401;28;20041;-79
2021/12/08 03:15:46;;;;;;;6.32;2.40;;;;;;;;;;5024971;28;20041;-81
2021/12/08 03:18:12;;;;;;;3.05;2.00;;;;;;;;;;5006144;28;20069;-81
2021/12/08 03:20:40;;;;;;;4.70;2.22;;;;;;;;;;5021220;28;20038;-79
2021/12/08 03:23:11;;;;;;;11.07;2.45;;;;;;;;;;5024186;28;20045;-82
2021/12/08 03:25:41;;;;;;;4.05;2.10;;;;;;;;;;5022713;28;20370;-80
2021/12/08 03:28:17;;;;;;;5.03;2.25;;;;;;;;;;5024334;28;20042;-82
2021/12/08 03:33:22;;;;;;;10.35;2.53;;;;;;;;;;5037842;28;20076;-80
2021/12/08 03:35:48;;;;;;;6.55;2.20;;;;;;;;;;5023043;28;20052;-81
2021/12/08 03:38:15;;;;;;;3.80;2.13;;;;;;;;;;5022933;28;20067;-82
2021/12/08 03:40:41;;;;;;;5.85;2.15;;;;;;;;;;5024317;28;20045;-81
2021/12/08 03:43:07;;;;;;;4.65;2.08;;;;;;;;;;5023286;28;20112;-81
2021/12/08 03:45:37;;;;;;;4.45;1.80;;;;;;;;;;5023408;28;20064;-80
2021/12/08 03:48:13;;;;;;;4.85;2.13;;;;;;;;;;5022394;28;20038;-82
2021/12/08 03:50:40;;;;;;;6.80;2.40;;;;;;;;;;5023823;28;20084;-81
2021/12/08 03:53:06;;;;;;;8.30;3.97;;;;;;;;;;5023821;28;20421;-79
2021/12/08 03:55:32;;;;;;;8.82;4.53;;;;;;;;;;5004906;28;20124;-79
2021/12/08 03:57:58;;;;;;;5.57;3.00;;;;;;;;;;5021467;28;20061;-80
2021/12/08 04:00:26;;;;;;;4.97;2.80;;;;;;;;;;5022495;28;20052;-79
2021/12/08 04:02:52;;;;;;;4.82;2.67;;;;;;;;;;5018362;28;20100;-78
2021/12/08 04:05:20;;;;;;;8.15;2.30;;;;;;;;;;5019342;28;20065;-78
2021/12/08 04:07:52;;;;;;;5.22;2.63;;;;;;;;;;5002785;28;20053;-78
2021/12/08 04:10:20;;;;;;;4.57;2.45;;;;;;;;;;5021752;28;20065;-78
2021/12/08 04:12:47;;;;;;;11.15;2.80;;;;;;;;;;5027886;28;20089;-78
2021/12/08 04:15:13;;;;;;;7.85;2.83;;;;;;;;;;5011434;28;20045;-80
2021/12/08 04:17:40;;;;;;;5.60;2.83;;;;;;;;;;5021130;28;20064;-79
2021/12/08 04:20:08;;;;;;;5.38;2.25;;;;;;;;;;5037218;28;20097;-79
2021/12/08 04:22:35;;;;;;;4.70;2.53;;;;;;;;;;5030800;28;20500;-79
2021/12/08 04:25:03;;;;;;;8.32;2.53;;;;;;;;;;5020605;28;20033;-79
2021/12/08 04:27:31;;;;;;;5.90;2.40;;;;;;;;;;5021049;28;20093;-79
2021/12/08 04:29:57;;;;;;;5.60;2.53;;;;;;;;;;5019510;28;20030;-78
2021/12/08 04:32:24;;;;;;;7.70;2.90;;;;;;;;;;4998969;28;20099;-77
2021/12/08 04:34:51;;;;;;;11.23;3.33;;;;;;;;;;5016957;28;20046;-78
2021/12/08 04:37:22;;;;;;;7.38;3.33;;;;;;;;;;5017046;28;20151;-78
2021/12/08 04:40:29;;;;;;;5.93;3.20;;;;;;;;;;5018349;28;20038;-80
2021/12/08 04:45:16;;;;;;;8.57;3.42;;;;;;;;;;5016669;28;20046;-77
2021/12/08 04:48:07;;;;;;;7.20;3.35;;;;;;;;;;5015885;28;20048;-80
2021/12/08 04:51:31;;;;;;;6.22;3.38;;;;;;;;;;5025880;28;20112;-78
2021/12/08 05:01:27;;;;;;;13.00;7.20;;;;;;;;;;5015400;28;20038;-77
2021/12/08 05:09:07;;;;;;;8.60;4.13;;;;;;;;;;5038215;28;20064;-79
2021/12/08 05:11:34;;;;;;;11.25;4.40;;;;;;;;;;5029281;28;20045;-78
2021/12/08 05:14:02;;;;;;;7.65;4.18;;;;;;;;;;5013692;28;20038;-80
2021/12/08 05:16:28;;;;;;;12.18;3.75;;;;;;;;;;5005642;28;20401;-80
2021/12/08 05:18:55;;;;;;;11.15;3.85;;;;;;;;;;5018254;28;20092;-80
2021/12/08 05:21:22;;;;;;;9.75;4.60;;;;;;;;;;5019360;28;20045;-80
2021/12/08 05:23:54;;;;;;;8.40;3.90;;;;;;;;;;5017166;28;20354;-80
2021/12/08 05:26:24;;;;;;;10.55;4.15;;;;;;;;;;5017960;28;20099;-80
2021/12/08 05:28:50;;;;;;;6.80;3.67;;;;;;;;;;5018951;28;20088;-79
2021/12/08 05:31:17;;;;;;;8.85;3.55;;;;;;;;;;5020027;28;20038;-80
2021/12/08 05:33:43;;;;;;;6.20;3.70;;;;;;;;;;5001758;28;20033;-81
2021/12/08 05:36:09;;;;;;;12.38;3.67;;;;;;;;;;5019844;28;20101;-79
2021/12/08 05:38:36;;;;;;;14.98;4.00;;;;;;;;;;5022174;28;20057;-79
2021/12/08 05:41:09;;;;;;;7.82;3.80;;;;;;;;;;5022209;28;20034;-79
2021/12/08 05:43:35;;;;;;;9.75;3.75;;;;;;;;;;5021403;28;20041;-79
2021/12/08 05:46:01;;;;;;;6.45;3.63;;;;;;;;;;5021329;28;20101;-79
2021/12/08 05:48:30;;;;;;;8.05;3.67;;;;;;;;;;5020627;28;20106;-81
2021/12/08 05:50:58;;;;;;;7.47;3.63;;;;;;;;;;5001699;28;20090;-82
2021/12/08 05:53:24;;;;;;;8.90;3.95;;;;;;;;;;5018707;28;20037;-81
2021/12/08 05:55:50;;;;;;;15.18;4.38;;;;;;;;;;5018705;28;20077;-80
2021/12/08 05:58:17;;;;;;;8.50;4.65;;;;;;;;;;5020318;28;20045;-80
2021/12/08 06:00:46;;;;;;;14.93;6.97;;;;;;;;;;5005155;28;20030;-80
2021/12/08 06:03:12;;;;;;;7.03;3.63;;;;;;;;;;4999937;28;20080;-80
2021/12/08 06:05:38;;;;;;;7.45;3.47;;;;;;;;;;5017829;28;20359;-79
2021/12/08 06:08:04;;;;;;;9.13;3.53;;;;;;;;;;5003061;28;20099;-80
2021/12/08 06:10:32;;;;;;;7.00;3.58;;;;;;;;;;5020127;28;20412;-82
2021/12/08 06:12:58;;;;;;;8.85;3.85;;;;;;;;;;5020223;28;20470;-80
2021/12/08 06:15:24;;;;;;;7.50;3.78;;;;;;;;;;5006088;28;20363;-78
2021/12/08 06:17:50;;;;;;;11.00;3.70;;;;;;;;;;5019537;28;20398;-77
2021/12/08 06:20:16;;;;;;;8.23;3.70;;;;;;;;;;5020867;28;20037;-79
2021/12/08 06:22:43;;;;;;;13.15;3.72;;;;;;;;;;5020358;28;20121;-77
2021/12/08 06:25:09;;;;;;;8.80;3.78;;;;;;;;;;5003048;28;20568;-79
2021/12/08 06:27:35;;;;;;;14.50;4.50;;;;;;;;;;5002027;28;20525;-77
2021/12/08 06:30:01;;;;;;;8.68;4.30;;;;;;;;;;5004255;28;20065;-78
2021/12/08 06:32:27;;;;;;;15.77;5.72;;;;;;;;;;5004171;28;20417;-77
2021/12/08 06:34:54;;;;;;;10.27;4.80;;;;;;;;;;5020466;28;20034;-79
2021/12/08 06:37:25;;;;;;;8.57;4.53;;;;;;;;;;5019977;28;20103;-79
2021/12/08 06:40:00;;;;;;;8.57;3.70;;;;;;;;;;5019683;28;20030;-79
2021/12/08 06:42:27;;;;;;;9.45;4.43;;;;;;;;;;5019305;28;20045;-79
2021/12/08 06:44:54;;;;;;;8.57;4.30;;;;;;;;;;5001976;28;20103;-77
2021/12/08 06:47:21;;;;;;;10.05;4.10;;;;;;;;;;5019622;28;20052;-76
2021/12/08 06:49:48;;;;;;;16.90;4.63;;;;;;;;;;5017274;28;20137;-78
2021/12/08 06:52:16;;;;;;;11.82;4.60;;;;;;;;;;5019101;28;20034;-78
2021/12/08 06:54:45;;;;;;;6.95;4.10;;;;;;;;;;5020957;28;20045;-79
2021/12/08 06:57:19;;;;;;;8.55;4.05;;;;;;;;;;5020001;28;20044;-76
2021/12/08 06:59:56;;;;;;;7.93;4.05;;;;;;;;;;5001543;28;20125;-76
2021/12/08 07:02:50;;;;;;;8.88;3.75;;;;;;;;;;5019306;28;20104;-76
2021/12/08 07:07:35;;;;;;;8.52;3.42;;;;;;;;;;5018675;28;20057;-76
2021/12/08 07:10:03;;;;;;;9.73;3.58;;;;;;;;;;5022796;28;20041;-76
2021/12/08 07:12:34;;;;;;;13.50;3.47;;;;;;;;;;5003576;28;20470;-76
2021/12/08 07:15:11;;;;;;;10.18;3.45;;;;;;;;;;5021580;28;20434;-76
2021/12/08 07:17:38;;;;;;;9.25;3.80;;;;;;;;;;5020680;28;20129;-76
2021/12/08 07:20:17;;;;;;;7.35;3.30;;;;;;;;;;5024347;28;20057;-76
2021/12/08 07:22:47;;;;;;;8.23;3.10;;;;;;;;;;5028818;28;20061;-76
2021/12/08 07:25:13;;;;;;;9.90;3.40;;;;;;;;;;5006936;28;20046;-79
2021/12/08 07:27:39;;;;;;;13.98;3.90;;;;;;;;;;5023456;28;20469;-79
2021/12/08 07:30:08;;;;;;;14.05;3.35;;;;;;;;;;5019637;28;20402;-77
2021/12/08 07:32:35;;;;;;;6.88;3.38;;;;;;;;;;5002397;28;20053;-78
2021/12/08 07:35:03;;;;;;;9.50;3.65;;;;;;;;;;5018684;28;20799;-77
2021/12/08 07:37:30;;;;;;;10.02;3.47;;;;;;;;;;5019081;28;20044;-80
2021/12/08 07:39:59;;;;;;;7.47;3.33;;;;;;;;;;5019493;28;20434;-80
2021/12/08 07:42:28;;;;;;;7.88;3.28;;;;;;;;;;5019915;28;20129;-80
2021/12/08 07:44:55;;;;;;;8.07;4.30;;;;;;;;;;5018435;28;20046;-80
2021/12/08 07:47:21;;;;;;;10.05;3.95;;;;;;;;;;5017640;28;20117;-79
2021/12/08 07:49:49;;;;;;;5.82;2.95;;;;;;;;;;5001150;28;20045;-79
2021/12/08 07:52:35;;;;;;;5.60;2.35;;;;;;;;;;5017642;28;20049;-80
2021/12/08 07:55:02;;;;;;;6.82;2.63;;;;;;;;;;5018059;28;20441;-80
2021/12/08 07:57:28;;;;;;;5.55;2.60;;;;;;;;;;5019474;28;20080;-80
2021/12/08 07:59:55;;;;;;;9.20;2.75;;;;;;;;;;5019406;28;20120;-80
2021/12/08 08:02:25;;;;;;;9.52;3.40;;;;;;;;;;5018770;28;20060;-80
2021/12/08 08:04:51;;;;;;;7.78;2.75;;;;;;;;;;5023680;28;20042;-80
2021/12/08 08:07:19;;;;;;;11.68;3.70;;;;;;;;;;5022170;28;20446;-80
2021/12/08 08:09:46;;;;;;;4.85;2.20;;;;;;;;;;5002163;28;20180;-80
2021/12/08 08:12:13;;;;;;;6.53;2.80;;;;;;;;;;5018404;28;20049;-79
2021/12/08 08:14:44;;;;;;;7.57;2.70;;;;;;;;;;5018866;28;20116;-80
2021/12/08 08:17:11;;;;;;;11.65;2.65;;;;;;;;;;5018088;28;20069;-80
2021/12/08 08:19:44;;;;;;;8.77;2.58;;;;;;;;;;5018385;28;20037;-79
2021/12/08 08:22:10;;;;;;;8.95;2.47;;;;;;;;;;5019138;28;20077;-80
2021/12/08 08:24:37;;;;;;;12.88;2.45;;;;;;;;;;5019449;28;20529;-81
2021/12/08 08:27:03;;;;;;;8.45;2.67;;;;;;;;;;5021680;28;20042;-79
2021/12/08 08:29:30;;;;;;;8.68;2.95;;;;;;;;;;5029123;28;20045;-80
2021/12/08 08:31:59;;;;;;;7.30;2.97;;;;;;;;;;5003342;28;20454;-79
2021/12/08 08:34:31;;;;;;;7.50;3.03;;;;;;;;;;5005000;28;20065;-80
2021/12/08 08:36:57;;;;;;;9.25;2.60;;;;;;;;;;5021027;28;20041;-80
2021/12/08 08:39:25;;;;;;;6.28;2.15;;;;;;;;;;5022511;28;20033;-80
2021/12/08 08:41:59;;;;;;;8.05;2.25;;;;;;;;;;5021710;28;20038;-79
2021/12/08 08:44:29;;;;;;;7.03;2.70;;;;;;;;;;5023774;28;20044;-80
2021/12/08 08:46:56;;;;;;;7.70;2.67;;;;;;;;;;5023142;28;20050;-80
2021/12/08 08:49:27;;;;;;;8.85;2.65;;;;;;;;;;5019898;28;20046;-81
2021/12/08 08:51:59;;;;;;;6.90;1.80;;;;;;;;;;5020734;28;20355;-79
2021/12/08 08:54:26;;;;;;;6.57;2.08;;;;;;;;;;5003614;28;20061;-80
2021/12/08 08:57:16;;;;;;;10.75;2.33;;;;;;;;;;5017778;28;20052;-79
2021/12/08 08:59:45;;;;;;;10.90;3.40;;;;;;;;;;5014792;28;20123;-80
2021/12/08 09:02:12;;;;;;;6.10;2.13;;;;;;;;;;5017577;28;20037;-80
2021/12/08 09:04:43;;;;;;;9.88;2.67;;;;;;;;;;5000749;28;20041;-80
2021/12/08 09:07:23;;;;;;;12.55;2.20;;;;;;;;;;5017613;28;20040;-80
2021/12/08 09:09:50;;;;;;;9.18;2.22;;;;;;;;;;5017302;28;20085;-79
2021/12/08 09:12:18;;;;;;;17.27;2.78;;;;;;;;;;5002674;28;20038;-80
2021/12/08 09:14:44;;;;;;;9.82;2.50;;;;;;;;;;5000644;28;20046;-80
2021/12/08 09:17:11;;;;;;;12.15;6.00;;;;;;;;;;5018291;28;20042;-80
2021/12/08 09:19:41;;;;;;;14.65;4.40;;;;;;;;;;5001242;28;20034;-80
2021/12/08 09:22:13;;;;;;;13.13;2.80;;;;;;;;;;5002752;28;20048;-80
2021/12/08 09:24:49;;;;;;;6.82;2.33;;;;;;;;;;5002146;28;20049;-79
2021/12/08 09:27:17;;;;;;;9.23;2.40;;;;;;;;;;5000786;28;20142;-80
2021/12/08 09:29:55;;;;;;;9.13;2.40;;;;;;;;;;5000926;28;20069;-80
2021/12/08 09:32:34;;;;;;;9.27;2.30;;;;;;;;;;5003912;28;20072;-80
2021/12/08 09:35:02;;;;;;;13.27;3.53;;;;;;;;;;5010841;28;20073;-80
2021/12/08 09:37:31;;;;;;;14.20;2.53;;;;;;;;;;5017336;28;20042;-80
2021/12/08 09:40:05;;;;;;;8.20;2.33;;;;;;;;;;5017404;28;20049;-81
2021/12/08 09:42:30;;;;;;;;;;;;;;;;;;5017365;28;20459;-80
2021/12/08 09:45:02;;;;;;;7.95;2.60;;;;;;;;;;5021944;28;19956;-80
2021/12/08 09:47:29;;;;;;;8.57;2.10;;;;;;;;;;5020813;28;20068;-78
2021/12/08 09:49:59;;;;;;;9.30;2.10;;;;;;;;;;5021769;28;20052;-79
2021/12/08 09:52:27;;;;;;;7.60;2.40;;;;;;;;;;5005261;28;20042;-79
2021/12/08 09:54:53;;;;;;;12.85;3.80;;;;;;;;;;5004310;28;20042;-79
2021/12/08 09:57:19;;;;;;;8.90;2.42;;;;;;;;;;5022654;28;20446;-79
2021/12/08 09:59:47;;;;;;;8.32;2.35;;;;;;;;;;5025034;28;20072;-79
2021/12/08 10:02:13;;;;;;;10.23;2.58;;;;;;;;;;5024732;28;20121;-79
2021/12/08 10:04:39;;;;;;;11.23;3.30;;;;;;;;;;5024877;28;20104;-79
2021/12/08 10:07:06;;;;;;;15.65;4.10;;;;;;;;;;5007122;28;20041;-78
2021/12/08 10:09:32;;;;;;;9.55;2.75;;;;;;;;;;5020774;28;20124;-79
2021/12/08 10:11:58;;;;;;;13.45;2.85;;;;;;;;;;5021451;28;20045;-77
2021/12/08 10:14:24;;;;;;;8.75;3.55;;;;;;;;;;5021660;28;20442;-78
2021/12/08 10:16:52;;;;;;;7.57;2.05;;;;;;;;;;5020173;28;20057;-77
2021/12/08 10:19:18;;;;;;;8.85;2.35;;;;;;;;;;5020601;28;20044;-77
2021/12/08 10:21:44;;;;;;;10.20;3.40;;;;;;;;;;5020207;28;20044;-78
2021/12/08 10:24:20;;;;;;;10.93;3.20;;;;;;;;;;5019642;28;20422;-77
2021/12/08 10:26:47;;;;;;;17.17;3.08;;;;;;;;;;5019894;28;20041;-77
2021/12/08 10:29:13;;;;;;;8.20;2.80;;;;;;;;;;5022926;28;20480;-78
2021/12/08 10:31:47;;;;;;;8.05;2.85;;;;;;;;;;5019416;28;20042;-78
2021/12/08 10:36:47;;;;;;;8.68;3.67;;;;;;;;;;5022986;28;20114;-79
2021/12/08 10:39:31;;;;;;;8.75;2.40;;;;;;;;;;5033659;28;20042;-78
2021/12/08 10:42:10;;;;;;;8.15;3.78;;;;;;;;;;5020205;28;20045;-78
2021/12/08 10:44:42;;;;;;;9.95;2.83;;;;;;;;;;5021058;28;20381;-78
2021/12/08 10:47:09;;;;;;;8.82;2.58;;;;;;;;;;5019607;28;20378;-78
2021/12/08 10:54:50;;;;;;;8.73;2.42;;;;;;;;;;5019256;28;20120;-79
2021/12/08 10:57:29;;;;;;;8.50;2.90;;;;;;;;;;5003836;28;20065;-79
2021/12/08 10:59:58;;;;;;;11.00;3.97;;;;;;;;;;5019708;28;20049;-79
2021/12/08 11:02:36;;;;;;;10.18;2.63;;;;;;;;;;5020780;28;20041;-79
2021/12/08 11:05:02;;;;;;;7.28;2.90;;;;;;;;;;5019974;28;20049;-79
2021/12/08 11:07:29;;;;;;;10.63;2.67;;;;;;;;;;5021999;28;20076;-79
2021/12/08 11:09:55;;;;;;;12.93;2.88;;;;;;;;;;5005084;28;20053;-79
2021/12/08 11:12:21;;;;;;;10.27;2.70;;;;;;;;;;5003851;28;20038;-79
2021/12/08 11:14:48;;;;;;;8.85;2.83;;;;;;;;;;5019547;28;20049;-77
2021/12/08 11:17:29;;;;;;;16.08;3.67;;;;;;;;;;5022482;28;20045;-77
2021/12/08 11:20:15;;;;;;;9.18;3.38;;;;;;;;;;5017878;28;20037;-77
2021/12/08 11:22:41;;;;;;;11.75;2.92;;;;;;;;;;5019680;28;20460;-79
2021/12/08 11:25:07;;;;;;;12.57;4.45;;;;;;;;;;5019321;28;20049;-78
2021/12/08 11:27:34;;;;;;;12.05;3.75;;;;;;;;;;5020821;28;20422;-79
2021/12/08 11:30:11;;;;;;;15.65;2.95;;;;;;;;;;5025891;28;20052;-78
2021/12/08 11:32:37;;;;;;;6.97;2.65;;;;;;;;;;5025602;28;20104;-78
2021/12/08 11:35:03;;;;;;;8.70;2.67;;;;;;;;;;5004102;28;20037;-79
2021/12/08 11:37:34;;;;;;;11.18;2.53;;;;;;;;;;5017162;28;20109;-77
2021/12/08 11:40:02;;;;;;;7.43;2.30;;;;;;;;;;5001254;28;20496;-77
2021/12/08 11:42:33;;;;;;;11.38;3.78;;;;;;;;;;5000868;28;20052;-77
2021/12/08 11:45:00;;;;;;;9.38;2.75;;;;;;;;;;5026666;28;20046;-80
2021/12/08 11:47:29;;;;;;;15.57;2.67;;;;;;;;;;5003741;28;20468;-77
2021/12/08 11:49:56;;;;;;;8.85;2.67;;;;;;;;;;5018210;28;20342;-77
2021/12/08 11:52:23;;;;;;;7.60;2.40;;;;;;;;;;5017988;28;20450;-77
2021/12/08 11:54:51;;;;;;;12.75;2.92;;;;;;;;;;5018422;28;20390;-77
2021/12/08 11:57:18;;;;;;;7.15;2.28;;;;;;;;;;5022289;28;20033;-77
2021/12/08 11:59:44;;;;;;;9.57;2.42;;;;;;;;;;5020776;28;20057;-78
2021/12/08 12:02:13;;;;;;;13.52;3.00;;;;;;;;;;5022547;28;20096;-77
2021/12/08 12:04:39;;;;;;;14.90;3.38;;;;;;;;;;5023724;28;20498;-77
2021/12/08 12:07:05;;;;;;;15.40;2.58;;;;;;;;;;5006477;28;20079;-78
2021/12/08 12:09:31;;;;;;;12.05;2.85;;;;;;;;;;5022728;28;20069;-78
2021/12/08 12:11:58;;;;;;;10.77;3.20;;;;;;;;;;5018934;28;20395;-80
2021/12/08 12:14:24;;;;;;;10.15;2.30;;;;;;;;;;5004399;28;20042;-81
2021/12/08 12:16:50;;;;;;;10.70;2.45;;;;;;;;;;5019661;28;20461;-78
2021/12/08 12:19:17;;;;;;;12.80;3.42;;;;;;;;;;5022055;28;20033;-80
2021/12/08 12:22:13;;;;;;;11.85;2.70;;;;;;;;;;5003944;28;20034;-78
2021/12/08 12:24:52;;;;;;;8.10;2.70;;;;;;;;;;5014745;28;20121;-78
2021/12/08 12:27:25;;;;;;;12.70;3.42;;;;;;;;;;5000842;28;20046;-77
2021/12/08 12:29:51;;;;;;;6.65;1.90;;;;;;;;;;5001232;28;20041;-77
2021/12/08 12:32:27;;;;;;;7.95;1.90;;;;;;;;;;5017186;28;20058;-77
2021/12/08 12:34:55;;;;;;;5.57;2.00;;;;;;;;;;4999824;28;20127;-77
2021/12/08 12:37:30;;;;;;;6.88;1.80;;;;;;;;;;4999597;28;20033;-77
2021/12/08 12:39:57;;;;;;;6.38;2.40;;;;;;;;;;5015597;28;20038;-77
2021/12/08 12:42:23;;;;;;;7.78;2.22;;;;;;;;;;4999770;28;20042;-79
2021/12/08 12:44:55;;;;;;;7.72;1.73;;;;;;;;;;5020827;28;20068;-76
2021/12/08 12:47:24;;;;;;;10.48;2.53;;;;;;;;;;5022496;28;20046;-76
2021/12/08 12:50:08;;;;;;;14.57;3.72;;;;;;;;;;5000697;28;20052;-76
2021/12/08 12:52:40;;;;;;;11.05;2.53;;;;;;;;;;5001739;28;20053;-77
2021/12/08 12:55:15;;;;;;;7.30;2.45;;;;;;;;;;5017718;28;20370;-79
2021/12/08 12:58:00;;;;;;;8.32;2.30;;;;;;;;;;5019464;28;20045;-79
2021/12/08 13:00:26;;;;;;;9.52;2.38;;;;;;;;;;5017271;28;20041;-77
2021/12/08 13:02:52;;;;;;;6.20;1.80;;;;;;;;;;5018352;28;20041;-76
2021/12/08 13:05:18;;;;;;;9.73;2.15;;;;;;;;;;5002712;28;20042;-79
2021/12/08 13:07:58;;;;;;;8.88;2.10;;;;;;;;;;5002457;28;20052;-80
2021/12/08 13:10:29;;;;;;;8.77;1.80;;;;;;;;;;5002163;28;20057;-77
2021/12/08 13:13:08;;;;;;;7.45;1.92;;;;;;;;;;5001411;28;20046;-79
2021/12/08 13:15:34;;;;;;;8.23;2.05;;;;;;;;;;5002064;28;20053;-80
2021/12/08 13:18:01;;;;;;;13.73;1.85;;;;;;;;;;5017488;28;20049;-77
2021/12/08 13:20:28;;;;;;;7.50;2.33;;;;;;;;;;5001658;28;20038;-80
2021/12/08 13:23:00;;;;;;;10.20;2.25;;;;;;;;;;5002142;28;20072;-79
2021/12/08 13:25:26;;;;;;;8.65;2.20;;;;;;;;;;5020654;28;20076;-79
2021/12/08 13:27:56;;;;;;;7.13;2.05;;;;;;;;;;5015642;28;20038;-77
2021/12/08 13:30:22;;;;;;;14.13;2.08;;;;;;;;;;5017168;28;20057;-77
2021/12/08 13:32:56;;;;;;;10.00;2.08;;;;;;;;;;5020747;28;20107;-77
2021/12/08 13:35:33;;;;;;;9.82;2.97;;;;;;;;;;5013720;28;20056;-77
2021/12/08 13:37:59;;;;;;;11.80;2.58;;;;;;;;;;5032814;28;20049;-77
2021/12/08 13:40:48;;;;;;;11.85;2.58;;;;;;;;;;5019078;28;20048;-78
2021/12/08 13:43:32;;;;;;;13.23;3.10;;;;;;;;;;5000500;28;20117;-78
2021/12/08 13:45:58;;;;;;;9.05;2.40;;;;;;;;;;5019305;28;20061;-79
2021/12/08 13:48:24;;;;;;;11.05;3.13;;;;;;;;;;5019386;28;20038;-78
2021/12/08 13:50:50;;;;;;;7.63;2.10;;;;;;;;;;5017386;28;20446;-79
2021/12/08 13:53:16;;;;;;;11.38;2.35;;;;;;;;;;5004711;28;20041;-79
2021/12/08 13:55:45;;;;;;;9.38;2.58;;;;;;;;;;5026209;28;20033;-79
2021/12/08 13:58:15;;;;;;;12.57;2.50;;;;;;;;;;5000555;28;20072;-79
2021/12/08 14:00:42;;;;;;;8.65;1.88;;;;;;;;;;5018659;28;20030;-79
2021/12/08 14:03:08;;;;;;;11.07;2.30;;;;;;;;;;5017784;28;20474;-77
2021/12/08 14:05:36;;;;;;;13.23;3.30;;;;;;;;;;5016021;28;20481;-77
2021/12/08 14:08:05;;;;;;;11.23;3.10;;;;;;;;;;5016891;28;20069;-77
2021/12/08 14:10:34;;;;;;;12.52;3.00;;;;;;;;;;5018356;28;20073;-77
2021/12/08 14:13:00;;;;;;;8.32;3.08;;;;;;;;;;5020592;28;20050;-80
2021/12/08 14:15:46;;;;;;;8.82;2.50;;;;;;;;;;5017267;28;20045;-76
2021/12/08 14:18:29;;;;;;;14.80;2.58;;;;;;;;;;5016276;28;20095;-77
2021/12/08 14:20:59;;;;;;;9.55;3.72;;;;;;;;;;5021538;28;20045;-78
2021/12/08 14:23:26;;;;;;;11.07;3.45;;;;;;;;;;5021786;28;20034;-77
2021/12/08 14:26:02;;;;;;;9.77;3.65;;;;;;;;;;5022142;28;20060;-77
2021/12/08 14:28:40;;;;;;;9.93;2.92;;;;;;;;;;5000162;28;20120;-77
2021/12/08 14:31:09;;;;;;;10.13;2.55;;;;;;;;;;5020597;28;20089;-77
2021/12/08 14:33:35;;;;;;;12.35;3.65;;;;;;;;;;5023117;28;20110;-78
2021/12/08 14:36:02;;;;;;;10.77;2.92;;;;;;;;;;5006108;28;20049;-77
2021/12/08 14:38:28;;;;;;;9.93;4.00;;;;;;;;;;5022000;28;20037;-77
2021/12/08 14:40:54;;;;;;;17.45;3.17;;;;;;;;;;5021534;28;20354;-77
2021/12/08 14:43:27;;;;;;;12.18;3.17;;;;;;;;;;5006504;28;20053;-80
2021/12/08 14:45:53;;;;;;;12.82;3.28;;;;;;;;;;5027853;28;20057;-78
2021/12/08 14:48:19;;;;;;;9.63;3.58;;;;;;;;;;5029665;28;20038;-79
2021/12/08 14:50:45;;;;;;;10.35;3.10;;;;;;;;;;5027977;28;20053;-79
2021/12/08 14:53:12;;;;;;;27.10;6.07;;;;;;;;;;5029356;28;20099;-79
2021/12/08 14:55:38;;;;;;;12.15;3.92;;;;;;;;;;5026668;28;20046;-78
2021/12/08 14:58:04;;;;;;;13.02;5.15;;;;;;;;;;5031018;28;20077;-78
2021/12/08 15:00:32;;;;;;;17.80;4.05;;;;;;;;;;5032940;28;20049;-78
2021/12/08 15:02:58;;;;;;;18.95;3.63;;;;;;;;;;5010723;28;20112;-79
2021/12/08 15:05:24;;;;;;;14.20;4.38;;;;;;;;;;5027200;28;20053;-79
2021/12/08 15:07:51;;;;;;;13.80;3.95;;;;;;;;;;5015047;28;20042;-79
2021/12/08 15:10:27;;;;;;;14.57;4.18;;;;;;;;;;5032843;28;20042;-79
2021/12/08 15:13:05;;;;;;;9.70;3.65;;;;;;;;;;5027796;28;20052;-77
2021/12/08 15:15:31;;;;;;;10.13;3.00;;;;;;;;;;5027569;28;20037;-77
2021/12/08 15:18:01;;;;;;;10.18;3.28;;;;;;;;;;5028508;28;20069;-77
2021/12/08 15:20:35;;;;;;;8.75;2.92;;;;;;;;;;5029999;28;20093;-77
2021/12/08 15:23:02;;;;;;;16.33;3.53;;;;;;;;;;5026680;28;20402;-79
2021/12/08 15:25:28;;;;;;;16.73;3.30;;;;;;;;;;5027642;28;20090;-80
2021/12/08 15:27:55;;;;;;;16.45;4.85;;;;;;;;;;5009068;28;20045;-78
2021/12/08 15:30:36;;;;;;;19.27;6.10;;;;;;;;;;5026061;28;20049;-79
2021/12/08 15:33:04;;;;;;;15.02;5.75;;;;;;;;;;5022162;28;20046;-78
2021/12/08 15:35:30;;;;;;;14.88;5.45;;;;;;;;;;5021735;28;20064;-78